sensor_id;sensor_type;location;lat;lon;timestamp;P1;durP1;ratioP1;P2;durP2;ratioP2
6412;SDS011;3239;48.714;9.472;2023-10-19T00:01:09;34.50;;;24.90;;
6412;SDS011;3239;48.714;9.472;2023-10-19T00:03:36;37.63;;;25.37;;
6412;SDS011;3239;48.714;9.472;2023-10-19T00:06:02;34.20;;;24.80;;
6412;SDS011;3239;48.714;9.472;2023-10-19T00:08:30;38.73;;;26.17;;
6412;SDS011;3239;48.714;9.472;2023-10-19T00:11:06;32.73;;;24.40;;
6412;SDS011;3239;48.714;9.472;2023-10-19T00:13:36;35.73;;;25.23;;
6412;SDS011;3239;48.714;9.472;2023-10-19T00:16:04;35.47;;;23.17;;
6412;SDS011;3239;48.714;9.472;2023-10-19T00:18:57;42.80;;;24.47;;
6412;SDS011;3239;48.714;9.472;2023-10-19T00:21:25;35.47;;;23.60;;
6412;SDS011;3239;48.714;9.472;2023-10-19T00:23:54;38.73;;;26.07;;
6412;SDS011;3239;48.714;9.472;2023-10-19T00:26:22;35.83;;;23.40;;
6412;SDS011;3239;48.714;9.472;2023-10-19T00:28:54;33.70;;;24.37;;
6412;SDS011;3239;48.714;9.472;2023-10-19T00:31:23;36.13;;;23.53;;
6412;SDS011;3239;48.714;9.472;2023-10-19T00:33:52;35.10;;;24.27;;
6412;SDS011;3239;48.714;9.472;2023-10-19T00:36:21;37.30;;;24.27;;
6412;SDS011;3239;48.714;9.472;2023-10-19T00:38:48;37.50;;;24.97;;
6412;SDS011;3239;48.714;9.472;2023-10-19T00:41:16;34.17;;;25.50;;
6412;SDS011;3239;48.714;9.472;2023-10-19T00:43:49;34.97;;;23.37;;
6412;SDS011;3239;48.714;9.472;2023-10-19T00:46:22;35.23;;;24.40;;
6412;SDS011;3239;48.714;9.472;2023-10-19T00:48:52;31.13;;;22.43;;
6412;SDS011;3239;48.714;9.472;2023-10-19T00:51:22;40.07;;;24.30;;
6412;SDS011;3239;48.714;9.472;2023-10-19T00:54:12;34.13;;;24.67;;
6412;SDS011;3239;48.714;9.472;2023-10-19T00:56:58;40.60;;;24.90;;
6412;SDS011;3239;48.714;9.472;2023-10-19T00:59:52;40.23;;;26.60;;
6412;SDS011;3239;48.714;9.472;2023-10-19T01:02:19;33.87;;;24.93;;
6412;SDS011;3239;48.714;9.472;2023-10-19T01:04:49;35.93;;;24.80;;
6412;SDS011;3239;48.714;9.472;2023-10-19T01:07:21;37.70;;;25.53;;
6412;SDS011;3239;48.714;9.472;2023-10-19T01:09:58;68.97;;;25.30;;
6412;SDS011;3239;48.714;9.472;2023-10-19T01:12:30;38.07;;;25.30;;
6412;SDS011;3239;48.714;9.472;2023-10-19T01:15:04;40.97;;;26.87;;
6412;SDS011;3239;48.714;9.472;2023-10-19T01:17:41;35.50;;;24.37;;
6412;SDS011;3239;48.714;9.472;2023-10-19T01:20:22;33.03;;;22.83;;
6412;SDS011;3239;48.714;9.472;2023-10-19T01:22:56;34.47;;;24.07;;
6412;SDS011;3239;48.714;9.472;2023-10-19T01:28:29;49.10;;;28.07;;
6412;SDS011;3239;48.714;9.472;2023-10-19T01:31:23;44.00;;;27.60;;
6412;SDS011;3239;48.714;9.472;2023-10-19T01:33:55;46.10;;;25.60;;
6412;SDS011;3239;48.714;9.472;2023-10-19T01:36:26;32.00;;;22.97;;
6412;SDS011;3239;48.714;9.472;2023-10-19T01:38:52;39.93;;;25.37;;
6412;SDS011;3239;48.714;9.472;2023-10-19T01:41:35;36.40;;;25.13;;
6412;SDS011;3239;48.714;9.472;2023-10-19T01:44:02;35.63;;;26.00;;
6412;SDS011;3239;48.714;9.472;2023-10-19T01:46:31;40.47;;;26.57;;
6412;SDS011;3239;48.714;9.472;2023-10-19T01:49:00;40.83;;;27.00;;
6412;SDS011;3239;48.714;9.472;2023-10-19T01:51:29;35.37;;;23.57;;
6412;SDS011;3239;48.714;9.472;2023-10-19T01:54:03;37.60;;;23.80;;
6412;SDS011;3239;48.714;9.472;2023-10-19T01:56:33;34.80;;;23.70;;
6412;SDS011;3239;48.714;9.472;2023-10-19T01:59:00;37.87;;;24.60;;
6412;SDS011;3239;48.714;9.472;2023-10-19T02:01:29;38.67;;;25.90;;
6412;SDS011;3239;48.714;9.472;2023-10-19T02:03:59;47.03;;;27.17;;
6412;SDS011;3239;48.714;9.472;2023-10-19T02:06:29;37.47;;;25.47;;
6412;SDS011;3239;48.714;9.472;2023-10-19T02:09:00;37.97;;;25.17;;
6412;SDS011;3239;48.714;9.472;2023-10-19T02:11:43;43.77;;;25.43;;
6412;SDS011;3239;48.714;9.472;2023-10-19T02:14:17;38.60;;;24.90;;
6412;SDS011;3239;48.714;9.472;2023-10-19T02:16:47;33.63;;;23.00;;
6412;SDS011;3239;48.714;9.472;2023-10-19T02:19:18;35.70;;;22.67;;
6412;SDS011;3239;48.714;9.472;2023-10-19T02:21:45;35.17;;;23.60;;
6412;SDS011;3239;48.714;9.472;2023-10-19T02:24:17;33.50;;;22.73;;
6412;SDS011;3239;48.714;9.472;2023-10-19T02:26:44;35.47;;;23.93;;
6412;SDS011;3239;48.714;9.472;2023-10-19T02:29:12;42.97;;;25.67;;
6412;SDS011;3239;48.714;9.472;2023-10-19T02:31:41;25.37;;;20.23;;
6412;SDS011;3239;48.714;9.472;2023-10-19T02:34:08;35.33;;;22.70;;
6412;SDS011;3239;48.714;9.472;2023-10-19T02:36:37;37.47;;;25.47;;
6412;SDS011;3239;48.714;9.472;2023-10-19T02:39:05;40.00;;;23.00;;
6412;SDS011;3239;48.714;9.472;2023-10-19T02:41:33;30.10;;;22.90;;
6412;SDS011;3239;48.714;9.472;2023-10-19T02:44:04;34.00;;;22.63;;
6412;SDS011;3239;48.714;9.472;2023-10-19T02:46:46;32.90;;;22.10;;
6412;SDS011;3239;48.714;9.472;2023-10-19T02:49:18;32.10;;;22.47;;
6412;SDS011;3239;48.714;9.472;2023-10-19T02:51:46;28.90;;;21.47;;
6412;SDS011;3239;48.714;9.472;2023-10-19T02:54:15;28.37;;;19.57;;
6412;SDS011;3239;48.714;9.472;2023-10-19T02:56:49;29.03;;;22.10;;
6412;SDS011;3239;48.714;9.472;2023-10-19T02:59:18;31.00;;;22.67;;
6412;SDS011;3239;48.714;9.472;2023-10-19T03:01:52;40.33;;;24.60;;
6412;SDS011;3239;48.714;9.472;2023-10-19T03:04:39;29.93;;;21.03;;
6412;SDS011;3239;48.714;9.472;2023-10-19T03:07:06;35.27;;;21.57;;
6412;SDS011;3239;48.714;9.472;2023-10-19T03:09:33;34.57;;;20.80;;
6412;SDS011;3239;48.714;9.472;2023-10-19T03:12:01;27.30;;;20.70;;
6412;SDS011;3239;48.714;9.472;2023-10-19T03:14:29;26.67;;;19.47;;
6412;SDS011;3239;48.714;9.472;2023-10-19T03:16:56;29.13;;;20.20;;
6412;SDS011;3239;48.714;9.472;2023-10-19T03:19:24;27.03;;;19.60;;
6412;SDS011;3239;48.714;9.472;2023-10-19T03:21:50;24.07;;;18.97;;
6412;SDS011;3239;48.714;9.472;2023-10-19T03:24:17;25.27;;;17.03;;
6412;SDS011;3239;48.714;9.472;2023-10-19T03:27:03;26.47;;;16.67;;
6412;SDS011;3239;48.714;9.472;2023-10-19T03:29:46;30.07;;;18.97;;
6412;SDS011;3239;48.714;9.472;2023-10-19T03:32:18;22.47;;;17.27;;
6412;SDS011;3239;48.714;9.472;2023-10-19T03:34:47;29.83;;;19.37;;
6412;SDS011;3239;48.714;9.472;2023-10-19T03:37:14;25.77;;;17.40;;
6412;SDS011;3239;48.714;9.472;2023-10-19T03:39:42;24.47;;;17.50;;
6412;SDS011;3239;48.714;9.472;2023-10-19T03:42:11;31.80;;;20.20;;
6412;SDS011;3239;48.714;9.472;2023-10-19T03:44:39;22.50;;;17.97;;
6412;SDS011;3239;48.714;9.472;2023-10-19T03:47:14;36.63;;;20.80;;
6412;SDS011;3239;48.714;9.472;2023-10-19T03:49:44;41.10;;;21.30;;
6412;SDS011;3239;48.714;9.472;2023-10-19T03:52:11;30.77;;;20.83;;
6412;SDS011;3239;48.714;9.472;2023-10-19T03:54:38;29.80;;;20.63;;
6412;SDS011;3239;48.714;9.472;2023-10-19T03:57:05;29.87;;;20.77;;
6412;SDS011;3239;48.714;9.472;2023-10-19T03:59:36;26.63;;;19.53;;
6412;SDS011;3239;48.714;9.472;2023-10-19T04:02:08;23.33;;;18.37;;
6412;SDS011;3239;48.714;9.472;2023-10-19T04:04:42;21.30;;;16.27;;
6412;SDS011;3239;48.714;9.472;2023-10-19T04:07:12;25.73;;;17.00;;
6412;SDS011;3239;48.714;9.472;2023-10-19T04:12:29;21.93;;;14.47;;
6412;SDS011;3239;48.714;9.472;2023-10-19T04:15:00;23.10;;;16.07;;
6412;SDS011;3239;48.714;9.472;2023-10-19T04:17:39;20.50;;;13.87;;
6412;SDS011;3239;48.714;9.472;2023-10-19T04:20:07;21.70;;;17.13;;
6412;SDS011;3239;48.714;9.472;2023-10-19T04:22:44;21.33;;;17.50;;
6412;SDS011;3239;48.714;9.472;2023-10-19T04:25:15;25.80;;;15.13;;
6412;SDS011;3239;48.714;9.472;2023-10-19T04:27:46;20.00;;;13.93;;
6412;SDS011;3239;48.714;9.472;2023-10-19T04:30:14;19.60;;;13.87;;
6412;SDS011;3239;48.714;9.472;2023-10-19T04:32:44;19.33;;;14.63;;
6412;SDS011;3239;48.714;9.472;2023-10-19T04:35:11;23.87;;;17.00;;
6412;SDS011;3239;48.714;9.472;2023-10-19T04:40:17;21.90;;;16.90;;
6412;SDS011;3239;48.714;9.472;2023-10-19T04:42:44;25.90;;;18.03;;
6412;SDS011;3239;48.714;9.472;2023-10-19T04:45:11;64.60;;;22.80;;
6412;SDS011;3239;48.714;9.472;2023-10-19T04:47:38;31.93;;;22.07;;
6412;SDS011;3239;48.714;9.472;2023-10-19T04:50:04;61.20;;;20.90;;
6412;SDS011;3239;48.714;9.472;2023-10-19T04:52:32;30.13;;;20.67;;
6412;SDS011;3239;48.714;9.472;2023-10-19T04:54:58;26.93;;;20.90;;
6412;SDS011;3239;48.714;9.472;2023-10-19T04:57:24;31.13;;;19.63;;
6412;SDS011;3239;48.714;9.472;2023-10-19T04:59:51;29.90;;;20.63;;
6412;SDS011;3239;48.714;9.472;2023-10-19T05:02:17;23.50;;;19.00;;
6412;SDS011;3239;48.714;9.472;2023-10-19T05:04:43;21.50;;;16.73;;
6412;SDS011;3239;48.714;9.472;2023-10-19T05:07:10;21.23;;;15.67;;
6412;SDS011;3239;48.714;9.472;2023-10-19T05:09:41;26.27;;;17.17;;
6412;SDS011;3239;48.714;9.472;2023-10-19T05:12:09;30.90;;;16.70;;
6412;SDS011;3239;48.714;9.472;2023-10-19T05:14:35;123.93;;;21.37;;
6412;SDS011;3239;48.714;9.472;2023-10-19T05:17:02;26.27;;;18.20;;
6412;SDS011;3239;48.714;9.472;2023-10-19T05:19:30;28.90;;;19.07;;
6412;SDS011;3239;48.714;9.472;2023-10-19T05:21:57;47.37;;;18.40;;
6412;SDS011;3239;48.714;9.472;2023-10-19T05:24:24;19.37;;;15.10;;
6412;SDS011;3239;48.714;9.472;2023-10-19T05:26:51;20.30;;;14.90;;
6412;SDS011;3239;48.714;9.472;2023-10-19T05:29:18;23.07;;;16.80;;
6412;SDS011;3239;48.714;9.472;2023-10-19T05:31:45;22.93;;;16.30;;
6412;SDS011;3239;48.714;9.472;2023-10-19T05:34:11;57.63;;;18.40;;
6412;SDS011;3239;48.714;9.472;2023-10-19T05:36:36;25.77;;;17.87;;
6412;SDS011;3239;48.714;9.472;2023-10-19T05:39:04;26.23;;;17.80;;
6412;SDS011;3239;48.714;9.472;2023-10-19T05:41:33;27.37;;;17.90;;
6412;SDS011;3239;48.714;9.472;2023-10-19T05:43:59;23.90;;;16.93;;
6412;SDS011;3239;48.714;9.472;2023-10-19T05:46:25;20.60;;;15.10;;
6412;SDS011;3239;48.714;9.472;2023-10-19T05:48:51;22.53;;;16.30;;
6412;SDS011;3239;48.714;9.472;2023-10-19T05:51:21;19.20;;;15.40;;
6412;SDS011;3239;48.714;9.472;2023-10-19T05:53:47;64.77;;;17.13;;
6412;SDS011;3239;48.714;9.472;2023-10-19T05:56:13;27.40;;;17.47;;
6412;SDS011;3239;48.714;9.472;2023-10-19T05:58:42;26.80;;;15.93;;
6412;SDS011;3239;48.714;9.472;2023-10-19T06:01:09;22.07;;;15.90;;
6412;SDS011;3239;48.714;9.472;2023-10-19T06:03:35;24.43;;;16.03;;
6412;SDS011;3239;48.714;9.472;2023-10-19T06:06:00;19.67;;;14.93;;
6412;SDS011;3239;48.714;9.472;2023-10-19T06:08:26;43.63;;;16.87;;
6412;SDS011;3239;48.714;9.472;2023-10-19T06:10:54;39.00;;;20.13;;
6412;SDS011;3239;48.714;9.472;2023-10-19T06:13:20;24.00;;;17.70;;
6412;SDS011;3239;48.714;9.472;2023-10-19T06:15:48;24.80;;;16.90;;
6412;SDS011;3239;48.714;9.472;2023-10-19T06:18:14;33.10;;;18.60;;
6412;SDS011;3239;48.714;9.472;2023-10-19T06:20:43;26.77;;;17.30;;
6412;SDS011;3239;48.714;9.472;2023-10-19T06:23:09;33.13;;;18.97;;
6412;SDS011;3239;48.714;9.472;2023-10-19T06:25:36;27.80;;;16.20;;
6412;SDS011;3239;48.714;9.472;2023-10-19T06:28:03;21.37;;;14.60;;
6412;SDS011;3239;48.714;9.472;2023-10-19T06:30:30;24.97;;;15.27;;
6412;SDS011;3239;48.714;9.472;2023-10-19T06:32:57;30.63;;;19.07;;
6412;SDS011;3239;48.714;9.472;2023-10-19T06:35:27;43.97;;;22.87;;
6412;SDS011;3239;48.714;9.472;2023-10-19T06:37:57;41.30;;;23.20;;
6412;SDS011;3239;48.714;9.472;2023-10-19T06:40:24;35.37;;;21.90;;
6412;SDS011;3239;48.714;9.472;2023-10-19T06:42:57;33.43;;;18.87;;
6412;SDS011;3239;48.714;9.472;2023-10-19T06:45:23;23.77;;;16.77;;
6412;SDS011;3239;48.714;9.472;2023-10-19T06:47:50;25.70;;;16.73;;
6412;SDS011;3239;48.714;9.472;2023-10-19T06:50:17;19.40;;;14.30;;
6412;SDS011;3239;48.714;9.472;2023-10-19T06:52:48;22.23;;;14.03;;
6412;SDS011;3239;48.714;9.472;2023-10-19T06:55:15;16.57;;;12.93;;
6412;SDS011;3239;48.714;9.472;2023-10-19T06:57:46;23.77;;;16.60;;
6412;SDS011;3239;48.714;9.472;2023-10-19T07:00:14;25.67;;;15.90;;
6412;SDS011;3239;48.714;9.472;2023-10-19T07:02:49;21.13;;;14.70;;
6412;SDS011;3239;48.714;9.472;2023-10-19T07:05:16;32.70;;;17.83;;
6412;SDS011;3239;48.714;9.472;2023-10-19T07:07:55;27.90;;;16.97;;
6412;SDS011;3239;48.714;9.472;2023-10-19T07:10:22;23.93;;;15.80;;
6412;SDS011;3239;48.714;9.472;2023-10-19T07:12:51;23.60;;;16.53;;
6412;SDS011;3239;48.714;9.472;2023-10-19T07:15:19;28.07;;;15.10;;
6412;SDS011;3239;48.714;9.472;2023-10-19T07:17:47;19.13;;;13.30;;
6412;SDS011;3239;48.714;9.472;2023-10-19T07:20:15;21.07;;;13.13;;
6412;SDS011;3239;48.714;9.472;2023-10-19T07:22:51;20.27;;;13.30;;
6412;SDS011;3239;48.714;9.472;2023-10-19T07:25:21;28.77;;;15.00;;
6412;SDS011;3239;48.714;9.472;2023-10-19T07:27:50;24.40;;;17.80;;
6412;SDS011;3239;48.714;9.472;2023-10-19T07:30:17;28.73;;;18.07;;
6412;SDS011;3239;48.714;9.472;2023-10-19T07:32:51;24.97;;;16.63;;
6412;SDS011;3239;48.714;9.472;2023-10-19T07:35:23;23.30;;;15.30;;
6412;SDS011;3239;48.714;9.472;2023-10-19T07:37:55;23.17;;;15.27;;
6412;SDS011;3239;48.714;9.472;2023-10-19T07:40:21;25.80;;;14.60;;
6412;SDS011;3239;48.714;9.472;2023-10-19T07:42:49;25.23;;;17.33;;
6412;SDS011;3239;48.714;9.472;2023-10-19T07:45:17;26.40;;;16.60;;
6412;SDS011;3239;48.714;9.472;2023-10-19T07:47:43;21.53;;;15.70;;
6412;SDS011;3239;48.714;9.472;2023-10-19T07:50:13;21.10;;;16.10;;
6412;SDS011;3239;48.714;9.472;2023-10-19T07:52:45;24.00;;;15.63;;
6412;SDS011;3239;48.714;9.472;2023-10-19T07:55:14;23.50;;;16.37;;
6412;SDS011;3239;48.714;9.472;2023-10-19T07:57:42;23.80;;;16.60;;
6412;SDS011;3239;48.714;9.472;2023-10-19T08:00:10;18.67;;;13.40;;
6412;SDS011;3239;48.714;9.472;2023-10-19T08:02:40;20.77;;;14.40;;
6412;SDS011;3239;48.714;9.472;2023-10-19T08:05:15;24.60;;;15.85;;
